Time;durP1;ratioP1;P1;durP2;ratioP2;P2;SDS_P1;SDS_P2;PMS_P1;PMS_P2;Temp;Humidity;BMP_temperature;BMP_pressure;BME280_temperature;BME280_humidity;BME280_pressure;Samples;Min_cycle;Max_cycle;Signal;HPM_P1;HPM_P2
2021/09/05 00:00:14;;;;;;;6.60;5.93;;;16.20;79.10;;;;;;6225785;28;20439;-79
2021/09/05 00:03:17;;;;;;;9.13;6.75;;;16.20;79.00;;;;;;6223834;28;20805;-79
2021/09/05 00:06:19;;;;;;;9.17;5.97;;;16.30;78.90;;;;;;6218952;28;20595;-78
2021/09/05 00:09:21;;;;;;;7.35;5.70;;;16.20;78.70;;;;;;6202643;28;20955;-79
2021/09/05 00:12:23;;;;;;;10.68;6.97;;;16.10;78.40;;;;;;6200800;28;20476;-80
2021/09/05 00:15:25;;;;;;;7.78;6.82;;;16.10;78.30;;;;;;6201495;28;20430;-79
2021/09/05 00:18:28;;;;;;;12.70;6.90;;;16.00;78.70;;;;;;6200593;28;20919;-80
2021/09/05 00:21:30;;;;;;;11.32;6.70;;;16.00;79.30;;;;;;6201133;28;20469;-79
2021/09/05 00:24:32;;;;;;;8.88;6.38;;;16.00;79.50;;;;;;6201440;28;20952;-78
2021/09/05 00:27:34;;;;;;;8.98;7.15;;;16.10;79.30;;;;;;6201220;28;20474;-79
2021/09/05 00:30:35;;;;;;;8.65;6.57;;;16.00;79.70;;;;;;6200802;28;20477;-80
2021/09/05 00:33:39;;;;;;;7.53;6.40;;;15.90;78.90;;;;;;6203537;28;20511;-79
2021/09/05 00:36:40;;;;;;;9.00;6.65;;;15.80;78.90;;;;;;6209883;28;20531;-79
2021/09/05 00:39:42;;;;;;;10.07;7.07;;;15.80;78.90;;;;;;6225587;28;20526;-78
2021/09/05 00:42:44;;;;;;;7.45;6.70;;;15.80;78.90;;;;;;6226329;28;20448;-79
2021/09/05 00:45:46;;;;;;;8.77;7.03;;;15.80;80.30;;;;;;6218351;28;20428;-79
2021/09/05 00:48:49;;;;;;;7.07;6.38;;;15.70;79.80;;;;;;6205805;28;20474;-78
2021/09/05 00:51:53;;;;;;;8.32;6.80;;;15.70;79.80;;;;;;6200819;28;20418;-79
2021/09/05 00:54:55;;;;;;;9.48;6.70;;;15.70;79.80;;;;;;6211676;28;20432;-79
2021/09/05 00:57:57;;;;;;;7.43;6.57;;;15.70;79.90;;;;;;6225432;28;20992;-79
2021/09/05 01:00:59;;;;;;;7.85;6.10;;;15.70;80.00;;;;;;6226323;28;20500;-79
2021/09/05 01:04:02;;;;;;;8.77;7.20;;;15.70;79.70;;;;;;6225512;28;20903;-78
2021/09/05 01:07:05;;;;;;;7.20;6.07;;;15.70;79.50;;;;;;6225326;28;20443;-80
2021/09/05 01:10:08;;;;;;;7.15;6.45;;;15.70;79.50;;;;;;6226217;28;20417;-79
2021/09/05 01:13:10;;;;;;;8.80;6.43;;;15.70;78.80;;;;;;6226203;28;20567;-79
2021/09/05 01:16:24;;;;;;;7.15;6.45;;;15.60;78.80;;;;;;6226434;28;20517;-78
2021/09/05 01:19:27;;;;;;;8.52;6.20;;;15.80;78.90;;;;;;6225249;28;20507;-79
2021/09/05 01:22:29;;;;;;;6.97;5.95;;;15.50;79.20;;;;;;6226124;28;20423;-79
2021/09/05 01:25:31;;;;;;;9.77;7.10;;;15.60;79.30;;;;;;6224407;28;20988;-79
2021/09/05 01:28:34;;;;;;;9.48;6.75;;;15.50;79.30;;;;;;6225445;28;20456;-78
2021/09/05 01:31:39;;;;;;;7.68;6.90;;;15.50;79.30;;;;;;6225551;28;20516;-78
2021/09/05 01:34:40;;;;;;;7.38;6.50;;;15.40;79.50;;;;;;6224795;28;20420;-78
2021/09/05 01:37:42;;;;;;;6.95;6.32;;;15.40;79.00;;;;;;6225465;28;20436;-79
2021/09/05 01:40:44;;;;;;;8.63;6.80;;;15.40;79.80;;;;;;6230403;28;20925;-80
2021/09/05 01:43:47;;;;;;;10.65;7.60;;;15.50;79.40;;;;;;6230032;28;20420;-79
2021/09/05 01:46:50;;;;;;;9.00;8.15;;;15.30;79.40;;;;;;6228006;28;20483;-79
2021/09/05 01:49:52;;;;;;;10.05;7.80;;;15.20;79.80;;;;;;6229512;28;20926;-79
2021/09/05 01:52:54;;;;;;;7.43;6.72;;;15.20;80.10;;;;;;6229600;28;20447;-79
2021/09/05 01:55:56;;;;;;;8.90;8.05;;;15.20;80.00;;;;;;6228028;28;21064;-79
2021/09/05 01:59:00;;;;;;;9.38;8.50;;;15.10;79.90;;;;;;6229435;28;20445;-78
2021/09/05 02:02:02;;;;;;;12.40;8.80;;;15.10;80.40;;;;;;6228489;28;20417;-78
2021/09/05 02:05:04;;;;;;;10.88;8.48;;;15.10;80.60;;;;;;6228690;28;20508;-78
2021/09/05 02:08:07;;;;;;;11.07;7.20;;;15.00;81.30;;;;;;6229093;28;20505;-78
2021/09/05 02:11:08;;;;;;;8.23;7.43;;;15.10;81.00;;;;;;6228515;28;20475;-78
2021/09/05 02:14:12;;;;;;;7.47;6.63;;;15.10;81.10;;;;;;6227978;28;20488;-78
2021/09/05 02:17:13;;;;;;;8.88;7.95;;;15.60;81.00;;;;;;6229129;28;20432;-79
2021/09/05 02:20:15;;;;;;;8.40;7.15;;;15.10;80.40;;;;;;6230536;28;21045;-79
2021/09/05 02:23:17;;;;;;;9.02;7.68;;;15.10;80.10;;;;;;6215018;28;20508;-79
2021/09/05 02:26:19;;;;;;;10.23;6.80;;;15.10;80.50;;;;;;6205153;28;20557;-79
2021/09/05 02:29:22;;;;;;;9.73;7.53;;;15.00;80.60;;;;;;6205265;28;20468;-79
2021/09/05 02:32:24;;;;;;;9.95;8.30;;;15.10;80.70;;;;;;6205658;28;20438;-79
2021/09/05 02:35:26;;;;;;;8.70;7.82;;;15.10;80.50;;;;;;6204403;28;20481;-79
2021/09/05 02:38:28;;;;;;;10.55;7.65;;;15.10;79.90;;;;;;6206015;28;20415;-80
2021/09/05 02:41:30;;;;;;;10.60;7.32;;;15.00;79.80;;;;;;6205484;28;20429;-79
2021/09/05 02:44:33;;;;;;;10.02;8.00;;;14.90;79.70;;;;;;6205038;28;20898;-78
2021/09/05 02:47:35;;;;;;;8.53;7.10;;;14.90;80.00;;;;;;6216955;28;20442;-79
2021/09/05 02:50:36;;;;;;;13.63;8.57;;;14.90;79.90;;;;;;6204007;28;20465;-79
2021/09/05 02:53:38;;;;;;;10.30;8.77;;;14.80;80.40;;;;;;6204736;28;20437;-79
2021/09/05 02:56:40;;;;;;;9.23;7.57;;;14.80;81.20;;;;;;6205802;28;20574;-79
2021/09/05 02:59:44;;;;;;;8.63;7.80;;;14.90;80.80;;;;;;6205256;28;20576;-79
2021/09/05 03:02:45;;;;;;;12.88;7.88;;;14.80;80.50;;;;;;6205479;28;20507;-79
2021/09/05 03:05:47;;;;;;;9.52;7.57;;;14.80;80.60;;;;;;6204610;28;20422;-79
2021/09/05 03:08:49;;;;;;;9.83;8.17;;;14.80;80.60;;;;;;6205516;28;20990;-79
2021/09/05 03:11:51;;;;;;;8.70;7.80;;;14.80;80.60;;;;;;6205043;28;20469;-79
2021/09/05 03:14:54;;;;;;;8.95;7.30;;;14.90;80.50;;;;;;6204649;28;20919;-79
2021/09/05 03:17:56;;;;;;;8.33;7.47;;;15.00;80.20;;;;;;6204991;28;20422;-80
2021/09/05 03:20:58;;;;;;;9.88;7.53;;;14.70;80.70;;;;;;6203279;28;20470;-79
2021/09/05 03:24:00;;;;;;;9.90;7.55;;;14.70;80.40;;;;;;6205073;28;20458;-79
2021/09/05 03:27:01;;;;;;;9.27;7.32;;;14.60;80.50;;;;;;6204330;28;20509;-79
2021/09/05 03:30:06;;;;;;;9.43;7.47;;;14.60;80.10;;;;;;6203646;28;20521;-78
2021/09/05 03:33:07;;;;;;;7.72;6.75;;;14.60;80.50;;;;;;6202632;28;20493;-78
2021/09/05 03:36:09;;;;;;;9.18;7.40;;;14.60;79.90;;;;;;6203379;28;20441;-77
2021/09/05 03:39:11;;;;;;;7.80;7.00;;;14.60;79.30;;;;;;6203259;28;20422;-77
2021/09/05 03:42:13;;;;;;;8.35;6.85;;;14.60;79.60;;;;;;6203267;28;20454;-78
2021/09/05 03:45:16;;;;;;;8.17;7.40;;;14.50;79.60;;;;;;6202878;28;20414;-78
2021/09/05 03:48:18;;;;;;;8.98;8.13;;;14.70;79.60;;;;;;6216152;28;20530;-78
2021/09/05 03:51:20;;;;;;;9.20;7.68;;;14.50;79.90;;;;;;6233753;28;20443;-76
2021/09/05 03:54:22;;;;;;;8.82;7.47;;;14.60;80.40;;;;;;6239177;28;20425;-78
2021/09/05 03:57:23;;;;;;;14.88;9.10;;;14.60;80.30;;;;;;6208983;28;20462;-78
2021/09/05 04:00:27;;;;;;;9.88;8.30;;;14.50;79.80;;;;;;6201990;28;20979;-78
2021/09/05 04:03:29;;;;;;;10.48;8.70;;;14.70;80.30;;;;;;6200405;28;20418;-78
2021/09/05 04:06:31;;;;;;;10.40;8.60;;;14.40;80.80;;;;;;6200677;28;20505;-77
2021/09/05 04:12:52;;;;;;;9.73;8.43;;;14.40;81.40;;;;;;6200508;28;20426;-78
2021/09/05 04:15:56;;;;;;;9.50;8.43;;;14.40;81.20;;;;;;6200676;28;20558;-78
2021/09/05 04:18:58;;;;;;;10.05;8.13;;;14.50;80.90;;;;;;6198508;28;20442;-77
2021/09/05 04:22:00;;;;;;;11.32;8.63;;;14.50;80.60;;;;;;6198265;28;20427;-77
2021/09/05 04:25:02;;;;;;;8.93;8.02;;;14.60;80.80;;;;;;6196096;28;20436;-77
2021/09/05 04:28:04;;;;;;;10.07;8.63;;;14.60;80.80;;;;;;6196306;28;20520;-77
2021/09/05 04:31:07;;;;;;;9.07;8.18;;;14.70;80.50;;;;;;6196001;28;20549;-77
2021/09/05 04:34:09;;;;;;;9.57;8.55;;;14.80;80.50;;;;;;6196248;28;20505;-77
2021/09/05 04:37:11;;;;;;;7.75;6.95;;;14.90;80.30;;;;;;6196292;28;25455;-77
2021/09/05 04:40:13;;;;;;;10.05;8.23;;;15.00;79.60;;;;;;6196624;28;20481;-76
2021/09/05 04:43:16;;;;;;;11.10;8.45;;;14.90;79.40;;;;;;6196390;28;20427;-77
2021/09/05 04:46:19;;;;;;;8.80;7.45;;;14.90;79.30;;;;;;6195519;28;21244;-76
2021/09/05 04:49:21;;;;;;;8.95;8.15;;;14.80;79.50;;;;;;6210279;28;20508;-78
2021/09/05 04:52:23;;;;;;;8.43;7.63;;;14.90;79.60;;;;;;6224183;28;20527;-77
2021/09/05 04:55:24;;;;;;;8.98;7.93;;;15.00;79.30;;;;;;6222719;28;20996;-77
2021/09/05 04:58:26;;;;;;;10.77;8.00;;;14.90;79.20;;;;;;6223221;28;20588;-78
2021/09/05 05:01:30;;;;;;;8.65;7.85;;;14.90;79.40;;;;;;6223708;28;20436;-78
2021/09/05 05:04:32;;;;;;;10.75;8.80;;;14.90;79.30;;;;;;6224907;28;20444;-78
2021/09/05 05:07:33;;;;;;;10.15;9.15;;;15.10;79.80;;;;;;6224227;28;20471;-78
2021/09/05 05:10:35;;;;;;;10.93;9.82;;;14.90;79.70;;;;;;6224430;28;20524;-77
2021/09/05 05:13:37;;;;;;;9.80;7.85;;;15.20;79.40;;;;;;6226425;28;20504;-77
2021/09/05 05:16:40;;;;;;;8.93;7.72;;;15.10;79.40;;;;;;6229294;28;20456;-78
2021/09/05 05:19:42;;;;;;;8.93;7.60;;;14.90;79.50;;;;;;6228527;28;20488;-78
2021/09/05 05:22:45;;;;;;;9.30;8.10;;;14.90;80.20;;;;;;6229250;28;20898;-78
2021/09/05 05:25:46;;;;;;;12.77;8.90;;;14.90;79.80;;;;;;6228387;28;20474;-78
2021/09/05 05:28:48;;;;;;;10.02;7.75;;;14.90;79.90;;;;;;6229300;28;20488;-77
2021/09/05 05:31:53;;;;;;;10.75;8.38;;;14.90;79.80;;;;;;6228453;28;20877;-77
2021/09/05 05:34:54;;;;;;;10.05;8.45;;;14.90;79.50;;;;;;6227667;28;20921;-77
2021/09/05 05:37:56;;;;;;;8.05;7.10;;;14.90;79.60;;;;;;6227575;28;20475;-78
2021/09/05 05:40:58;;;;;;;9.60;8.60;;;14.90;79.30;;;;;;6228015;28;20456;-78
2021/09/05 05:44:00;;;;;;;10.25;7.93;;;15.00;79.50;;;;;;6228786;28;20498;-78
2021/09/05 05:47:03;;;;;;;9.98;8.70;;;15.00;80.00;;;;;;6227426;28;20468;-77
2021/09/05 05:50:06;;;;;;;8.27;7.40;;;15.10;80.10;;;;;;6226740;28;20420;-78
2021/09/05 05:53:08;;;;;;;7.75;7.00;;;15.20;79.60;;;;;;6226602;28;20934;-78
2021/09/05 05:56:09;;;;;;;9.13;7.60;;;15.30;79.20;;;;;;6228125;28;20547;-77
2021/09/05 05:59:11;;;;;;;10.30;8.80;;;15.70;78.70;;;;;;6227565;28;20507;-77
2021/09/05 06:02:15;;;;;;;9.13;8.23;;;15.70;78.10;;;;;;6227719;28;20539;-77
2021/09/05 06:05:17;;;;;;;8.57;7.77;;;15.90;78.00;;;;;;6227243;28;20458;-77
2021/09/05 06:08:19;;;;;;;11.70;7.45;;;16.00;77.60;;;;;;6227757;28;20473;-78
2021/09/05 06:11:21;;;;;;;11.13;6.95;;;16.20;77.40;;;;;;6227206;28;20427;-78
2021/09/05 06:14:23;;;;;;;11.77;7.60;;;16.40;77.00;;;;;;6227769;28;20420;-78
2021/09/05 06:17:26;;;;;;;9.82;7.57;;;16.70;76.70;;;;;;6227753;28;20416;-78
2021/09/05 06:20:28;;;;;;;9.65;8.05;;;16.80;76.30;;;;;;6228540;28;20512;-78
2021/09/05 06:23:30;;;;;;;8.38;7.50;;;17.00;77.00;;;;;;6228167;28;20527;-78
2021/09/05 06:26:31;;;;;;;7.30;6.63;;;17.20;75.90;;;;;;6227216;28;20998;-78
2021/09/05 06:29:34;;;;;;;9.93;7.78;;;17.50;75.60;;;;;;6228199;28;20492;-78
2021/09/05 06:32:37;;;;;;;11.27;7.80;;;17.50;75.40;;;;;;6228519;28;20935;-78
2021/09/05 06:35:39;;;;;;;9.35;7.72;;;17.60;75.50;;;;;;6227532;28;20544;-78
2021/09/05 06:38:40;;;;;;;10.60;7.03;;;17.70;75.40;;;;;;6227918;28;20906;-78
2021/09/05 06:41:42;;;;;;;8.93;7.20;;;17.70;75.40;;;;;;6227559;28;20522;-77
2021/09/05 06:44:44;;;;;;;8.63;7.28;;;17.70;75.80;;;;;;6227121;28;20507;-78
2021/09/05 06:47:47;;;;;;;8.05;7.25;;;17.80;76.30;;;;;;6227171;28;20425;-77
2021/09/05 06:50:49;;;;;;;8.85;7.95;;;18.00;76.10;;;;;;6226467;28;20466;-78
2021/09/05 06:53:51;;;;;;;13.93;9.07;;;18.20;74.80;;;;;;6263176;23;20490;-79
2021/09/05 06:56:52;;;;;;;11.20;8.43;;;18.50;73.20;;;;;;6248582;28;20858;-78
2021/09/05 06:59:54;;;;;;;10.93;7.38;;;18.90;72.40;;;;;;6249163;28;20516;-79
2021/09/05 07:02:57;;;;;;;9.70;7.35;;;19.30;71.60;;;;;;6244476;28;20416;-79
2021/09/05 07:05:59;;;;;;;9.00;8.10;;;19.80;70.40;;;;;;6225633;28;20498;-79
2021/09/05 07:09:01;;;;;;;8.98;8.05;;;20.40;68.60;;;;;;6226523;28;20433;-79
2021/09/05 07:12:03;;;;;;;17.65;7.93;;;20.70;66.60;;;;;;6225588;28;20968;-79
2021/09/05 07:15:06;;;;;;;12.30;9.15;;;20.90;66.50;;;;;;6225072;28;20423;-79
2021/09/05 07:18:10;;;;;;;9.67;7.50;;;21.00;64.50;;;;;;6225576;28;20588;-79
2021/09/05 07:21:11;;;;;;;12.80;7.85;;;21.00;65.20;;;;;;6225488;28;20432;-79
2021/09/05 07:24:13;;;;;;;11.73;8.33;;;21.10;64.40;;;;;;6225268;28;20980;-79
2021/09/05 07:27:15;;;;;;;10.38;7.88;;;21.20;63.90;;;;;;6224499;28;20423;-79
2021/09/05 07:30:18;;;;;;;8.35;6.85;;;21.50;62.80;;;;;;6224748;28;20524;-78
2021/09/05 07:33:21;;;;;;;9.07;7.53;;;21.70;62.10;;;;;;6225657;28;20424;-79
2021/09/05 07:36:23;;;;;;;8.90;7.65;;;22.10;61.10;;;;;;6224621;28;20515;-79
2021/09/05 07:39:25;;;;;;;9.63;7.93;;;22.40;59.50;;;;;;6224661;28;20470;-80
2021/09/05 07:42:27;;;;;;;9.65;7.65;;;22.70;58.80;;;;;;6223746;28;21016;-79
2021/09/05 07:45:29;;;;;;;9.38;7.22;;;23.10;57.90;;;;;;6223600;28;20448;-79
2021/09/05 07:48:32;;;;;;;7.85;6.85;;;23.50;57.00;;;;;;6224525;28;20483;-79
2021/09/05 07:51:34;;;;;;;8.18;7.38;;;23.80;56.50;;;;;;6238222;28;20443;-79
2021/09/05 07:54:36;;;;;;;8.13;7.40;;;23.80;55.80;;;;;;6244047;28;20569;-79
2021/09/05 07:57:38;;;;;;;9.98;7.72;;;23.70;56.50;;;;;;6249206;28;20415;-78
2021/09/05 08:00:39;;;;;;;9.32;7.40;;;23.60;56.60;;;;;;6250026;28;20524;-79
2021/09/05 08:03:43;;;;;;;9.77;7.88;;;23.60;55.60;;;;;;6248721;28;20481;-79
2021/09/05 08:06:44;;;;;;;7.57;6.50;;;23.90;56.00;;;;;;6247494;28;20498;-79
2021/09/05 08:09:46;;;;;;;9.70;7.47;;;24.20;55.00;;;;;;6247589;28;20908;-80
2021/09/05 08:12:48;;;;;;;8.20;7.40;;;24.40;53.80;;;;;;6247909;28;20466;-79
2021/09/05 08:15:50;;;;;;;7.63;6.65;;;24.60;52.70;;;;;;6247871;28;20899;-79
2021/09/05 08:18:53;;;;;;;8.20;6.18;;;24.60;51.60;;;;;;6248299;28;20497;-79
2021/09/05 08:21:55;;;;;;;8.60;6.88;;;24.50;50.60;;;;;;6243244;28;20483;-79
2021/09/05 08:24:57;;;;;;;8.60;7.10;;;24.40;51.60;;;;;;6242624;28;20985;-79
2021/09/05 08:27:58;;;;;;;9.00;6.82;;;24.50;51.80;;;;;;6248752;28;20569;-79
2021/09/05 08:31:01;;;;;;;8.77;7.65;;;24.60;52.00;;;;;;6247756;28;20415;-78
2021/09/05 08:34:05;;;;;;;7.63;6.82;;;24.90;51.50;;;;;;6247300;28;20430;-79
2021/09/05 08:37:07;;;;;;;11.40;6.97;;;25.10;50.80;;;;;;6246186;28;20438;-78
2021/09/05 08:40:10;;;;;;;8.15;6.28;;;25.30;51.00;;;;;;6247359;28;20469;-79
2021/09/05 08:43:12;;;;;;;8.37;7.30;;;25.40;49.80;;;;;;6246556;28;20561;-79
2021/09/05 08:46:14;;;;;;;7.50;6.80;;;25.60;49.00;;;;;;6245666;28;20500;-79
2021/09/05 08:49:20;;;;;;;9.63;6.72;;;25.70;49.30;;;;;;6249097;28;20423;-79
2021/09/05 08:52:22;;;;;;;7.87;7.07;;;25.80;49.40;;;;;;6245761;28;21026;-79
2021/09/05 08:55:24;;;;;;;8.47;6.63;;;25.90;49.60;;;;;;6244822;28;20453;-78
2021/09/05 08:58:26;;;;;;;7.03;6.32;;;26.00;49.00;;;;;;6250817;28;20411;-79
2021/09/05 09:01:29;;;;;;;6.95;6.32;;;26.10;49.20;;;;;;6251237;28;20589;-80
2021/09/05 09:04:38;;;;;;;7.97;7.10;;;26.10;48.80;;;;;;6250663;28;20434;-79
2021/09/05 09:07:45;;;;;;;7.93;7.13;;;26.30;48.20;;;;;;6251152;28;20472;-78
2021/09/05 09:10:49;;;;;;;8.57;6.73;;;26.30;48.10;;;;;;6250982;28;20427;-78
2021/09/05 09:13:55;;;;;;;8.13;6.63;;;26.40;48.10;;;;;;6251644;28;20419;-78
2021/09/05 09:16:58;;;;;;;7.72;6.65;;;26.50;48.30;;;;;;6250685;28;20438;-78
2021/09/05 09:20:01;;;;;;;7.38;6.68;;;26.60;49.00;;;;;;6251860;28;20430;-79
2021/09/05 09:23:12;;;;;;;13.60;6.60;;;26.60;50.10;;;;;;6243113;28;20504;-79
2021/09/05 09:26:15;;;;;;;7.43;5.78;;;26.60;49.20;;;;;;6251360;28;20428;-78
2021/09/05 09:29:17;;;;;;;10.13;6.30;;;26.80;49.50;;;;;;6251387;28;20492;-78
2021/09/05 09:32:22;;;;;;;7.53;6.72;;;26.70;49.00;;;;;;6251517;28;20466;-79
2021/09/05 09:35:27;;;;;;;6.80;6.20;;;26.70;49.10;;;;;;6246985;28;20412;-78
2021/09/05 09:38:29;;;;;;;9.93;6.50;;;26.90;48.90;;;;;;6223931;28;20515;-78
2021/09/05 09:41:33;;;;;;;10.55;8.80;;;27.00;49.00;;;;;;6220973;28;20486;-78
2021/09/05 09:44:35;;;;;;;10.45;7.78;;;27.10;49.00;;;;;;6239465;28;20898;-78
2021/09/05 09:47:43;;;;;;;10.32;6.55;;;27.20;48.50;;;;;;6237190;28;20491;-79
2021/09/05 09:50:46;;;;;;;8.02;7.22;;;27.30;48.20;;;;;;6238426;28;20419;-79
2021/09/05 09:53:49;;;;;;;8.45;6.47;;;27.40;47.80;;;;;;6226693;28;20470;-78
2021/09/05 09:56:53;;;;;;;11.45;10.35;;;27.40;45.80;;;;;;6211289;28;20590;-79
2021/09/05 09:59:55;;;;;;;8.57;7.78;;;27.30;46.50;;;;;;6212302;28;20979;-79
2021/09/05 10:02:57;;;;;;;6.20;5.53;;;27.40;45.60;;;;;;6214173;28;20506;-78
2021/09/05 10:06:03;;;;;;;5.93;5.32;;;27.40;45.80;;;;;;6222250;28;20413;-78
2021/09/05 10:09:05;;;;;;;6.63;5.63;;;27.40;46.70;;;;;;6236654;28;20519;-79
2021/09/05 10:12:09;;;;;;;6.78;6.07;;;27.60;45.90;;;;;;6212781;28;20477;-78
2021/09/05 10:15:12;;;;;;;7.53;6.60;;;27.90;46.70;;;;;;6242724;28;20788;-79
2021/09/05 10:18:14;;;;;;;10.55;7.25;;;28.40;46.00;;;;;;6237433;28;20496;-80
2021/09/05 10:21:20;;;;;;;9.70;7.03;;;28.80;44.70;;;;;;6224032;28;20412;-77
2021/09/05 10:24:21;;;;;;;7.82;6.70;;;29.00;44.10;;;;;;6216428;28;20516;-79
2021/09/05 10:27:29;;;;;;;7.00;5.93;;;29.10;44.70;;;;;;6224430;28;20471;-79
2021/09/05 10:30:31;;;;;;;8.27;5.97;;;29.30;43.90;;;;;;6223640;28;20419;-77
2021/09/05 10:33:35;;;;;;;6.63;5.93;;;29.30;43.20;;;;;;6226440;28;20559;-79
2021/09/05 10:36:44;;;;;;;8.50;6.67;;;29.30;44.40;;;;;;6226262;28;20571;-79
2021/09/05 10:40:09;;;;;;;7.60;6.00;;;29.40;44.10;;;;;;6224087;28;20427;-80
2021/09/05 10:43:11;;;;;;;7.50;5.68;;;29.70;43.30;;;;;;6224429;28;20424;-76
2021/09/05 10:46:14;;;;;;;6.38;5.32;;;30.00;42.60;;;;;;6225568;28;20503;-80
2021/09/05 10:49:17;;;;;;;6.38;5.78;;;30.00;43.00;;;;;;6224849;28;20487;-80
2021/09/05 10:52:45;;;;;;;6.97;6.28;;;30.10;42.60;;;;;;6217726;28;20438;-80
2021/09/05 10:56:12;;;;;;;7.50;5.78;;;30.40;42.70;;;;;;6238961;28;21009;-80
2021/09/05 10:59:16;;;;;;;6.88;5.70;;;30.60;41.90;;;;;;6239025;28;20934;-79
2021/09/05 11:02:18;;;;;;;6.90;6.03;;;30.90;41.60;;;;;;6235408;28;21124;-80
2021/09/05 11:05:20;;;;;;;6.28;5.68;;;31.00;40.90;;;;;;6227969;28;20545;-78
2021/09/05 11:08:26;;;;;;;7.20;5.90;;;31.30;41.50;;;;;;6248551;28;20869;-79
2021/09/05 11:11:52;;;;;;;7.60;5.70;;;31.50;41.10;;;;;;6224261;28;20528;-77
2021/09/05 11:15:02;;;;;;;5.10;4.60;;;31.20;40.60;;;;;;6239964;28;20469;-80
2021/09/05 11:18:04;;;;;;;8.43;5.20;;;31.00;40.70;;;;;;6236848;28;20435;-77
2021/09/05 11:21:06;;;;;;;5.87;5.07;;;31.40;40.40;;;;;;6221409;28;20547;-77
2021/09/05 11:24:09;;;;;;;9.20;5.33;;;31.60;40.10;;;;;;6213372;28;20493;-77
2021/09/05 11:27:12;;;;;;;6.50;5.18;;;31.40;39.70;;;;;;6221858;28;20498;-79
2021/09/05 11:30:15;;;;;;;7.00;5.28;;;31.40;39.60;;;;;;6223350;28;20462;-78
2021/09/05 11:33:17;;;;;;;6.85;4.60;;;31.60;39.40;;;;;;6222299;28;20435;-78
2021/09/05 11:36:19;;;;;;;7.82;5.40;;;31.90;39.90;;;;;;6223006;28;20437;-78
2021/09/05 11:39:22;;;;;;;5.88;4.68;;;31.80;38.90;;;;;;6223054;28;20464;-78
2021/09/05 11:42:24;;;;;;;6.15;5.10;;;31.80;39.90;;;;;;6224252;28;20499;-79
2021/09/05 11:45:27;;;;;;;7.07;4.93;;;31.90;38.60;;;;;;6223697;28;20417;-79
2021/09/05 11:48:29;;;;;;;6.10;4.80;;;32.00;38.80;;;;;;6224478;28;20475;-79
2021/09/05 11:51:31;;;;;;;5.57;5.07;;;32.00;39.00;;;;;;6220987;28;20535;-78
2021/09/05 11:54:36;;;;;;;4.78;4.28;;;32.00;36.60;;;;;;6214575;28;20948;-79
2021/09/05 11:57:50;;;;;;;5.80;4.77;;;31.90;37.10;;;;;;6211322;28;20422;-78
2021/09/05 12:00:55;;;;;;;6.07;4.53;;;31.60;37.20;;;;;;6222613;28;20468;-79
2021/09/05 12:03:57;;;;;;;6.47;4.88;;;31.70;37.80;;;;;;6198748;28;20438;-79
2021/09/05 12:06:59;;;;;;;7.38;4.85;;;32.20;36.90;;;;;;6214726;28;20417;-78
2021/09/05 12:10:09;;;;;;;5.03;4.63;;;32.60;36.00;;;;;;6211879;28;20514;-79
2021/09/05 12:13:12;;;;;;;5.53;4.53;;;32.70;35.20;;;;;;6200120;28;20466;-78
2021/09/05 12:16:21;;;;;;;4.60;4.20;;;32.40;35.80;;;;;;6222840;28;20559;-78
2021/09/05 12:19:23;;;;;;;6.15;4.25;;;32.20;36.50;;;;;;6201835;28;20424;-79
2021/09/05 12:22:25;;;;;;;4.97;4.55;;;32.10;35.80;;;;;;6211975;28;20505;-79
2021/09/05 12:25:33;;;;;;;5.05;4.18;;;32.20;35.90;;;;;;6222293;28;20444;-79
2021/09/05 12:28:35;;;;;;;4.90;4.40;;;32.40;34.40;;;;;;6223178;28;20566;-79
2021/09/05 12:31:42;;;;;;;6.77;4.43;;;32.00;34.00;;;;;;6221835;28;20424;-78
2021/09/05 12:34:45;;;;;;;5.18;4.35;;;32.00;35.30;;;;;;6220893;28;20991;-78
2021/09/05 12:37:47;;;;;;;5.30;4.57;;;32.40;34.30;;;;;;6220674;28;20432;-78
2021/09/05 12:40:50;;;;;;;5.18;4.68;;;32.60;33.70;;;;;;6221866;28;20468;-78
2021/09/05 12:43:55;;;;;;;5.85;4.53;;;32.90;33.50;;;;;;6221125;28;20593;-78
2021/09/05 12:47:00;;;;;;;7.43;4.57;;;33.00;34.40;;;;;;6221092;28;20531;-78
2021/09/05 12:50:02;;;;;;;5.07;4.57;;;32.80;33.60;;;;;;6221698;28;20416;-78
2021/09/05 12:53:10;;;;;;;4.43;4.03;;;33.10;32.80;;;;;;6212116;28;20475;-78
2021/09/05 12:56:13;;;;;;;4.88;4.38;;;33.60;33.10;;;;;;6231978;22;20479;-84
2021/09/05 12:59:15;;;;;;;4.47;4.07;;;33.70;32.40;;;;;;6186668;28;20460;-82
2021/09/05 13:02:18;;;;;;;5.18;3.40;;;33.20;31.30;;;;;;6188462;28;20480;-83
2021/09/05 13:05:20;;;;;;;4.47;4.00;;;32.60;32.10;;;;;;6179066;28;20431;-84
2021/09/05 13:08:22;;;;;;;3.90;3.50;;;32.50;34.70;;;;;;6134025;29;20436;-81
2021/09/05 13:11:29;;;;;;;4.05;3.50;;;32.60;33.70;;;;;;6132642;29;20433;-80
2021/09/05 13:14:31;;;;;;;4.85;4.20;;;32.50;32.70;;;;;;6134511;29;20428;-79
2021/09/05 13:17:33;;;;;;;4.97;4.47;;;32.00;33.20;;;;;;6157143;28;21166;-81
2021/09/05 13:20:35;;;;;;;4.47;4.07;;;31.80;34.20;;;;;;6156177;29;20492;-83
2021/09/05 13:23:37;;;;;;;6.28;3.63;;;31.80;33.00;;;;;;6142167;28;20510;-83
2021/09/05 13:26:40;;;;;;;3.85;3.45;;;31.70;33.50;;;;;;6133074;28;20430;-82
2021/09/05 13:29:42;;;;;;;5.38;3.97;;;31.90;34.30;;;;;;6141303;28;20464;-82
2021/09/05 13:32:43;;;;;;;5.13;4.40;;;32.10;33.40;;;;;;6158192;29;21181;-83
2021/09/05 13:35:45;;;;;;;4.72;4.28;;;32.20;33.00;;;;;;6161625;28;20421;-83
2021/09/05 13:38:47;;;;;;;4.40;4.00;;;32.30;33.00;;;;;;6149148;28;20426;-82
2021/09/05 13:41:50;;;;;;;5.88;4.55;;;32.30;32.10;;;;;;6138996;28;20427;-82
2021/09/05 13:44:52;;;;;;;4.45;3.92;;;32.30;33.90;;;;;;6139739;28;20470;-82
2021/09/05 13:47:54;;;;;;;5.17;4.17;;;32.30;33.50;;;;;;6164191;29;20441;-83
2021/09/05 13:50:56;;;;;;;5.82;3.85;;;32.50;34.00;;;;;;6174019;28;21048;-81
2021/09/05 13:53:58;;;;;;;7.72;3.90;;;32.70;32.70;;;;;;6170600;28;20839;-83
2021/09/05 13:57:01;;;;;;;4.30;3.70;;;32.80;33.20;;;;;;6161764;28;20534;-81
2021/09/05 14:00:04;;;;;;;6.30;3.57;;;32.70;32.70;;;;;;6186363;28;20456;-81
2021/09/05 14:03:06;;;;;;;4.30;3.78;;;32.50;32.30;;;;;;6170497;28;20537;-83
2021/09/05 14:06:07;;;;;;;4.25;3.88;;;32.00;33.00;;;;;;6164655;28;20465;-82
2021/09/05 14:09:09;;;;;;;4.72;4.18;;;31.80;34.10;;;;;;6173600;28;20441;-80
2021/09/05 14:12:13;;;;;;;5.75;3.67;;;32.00;34.30;;;;;;6188037;28;20903;-81
2021/09/05 14:15:15;;;;;;;6.22;4.15;;;32.00;33.60;;;;;;6183773;28;20479;-83
2021/09/05 14:18:17;;;;;;;5.32;4.32;;;32.30;33.10;;;;;;6183765;28;20483;-82
2021/09/05 14:21:19;;;;;;;4.05;3.65;;;32.50;32.90;;;;;;6183719;28;20475;-83
2021/09/05 14:24:21;;;;;;;4.82;3.80;;;32.10;32.80;;;;;;6176930;28;20444;-83
2021/09/05 14:27:28;;;;;;;4.80;3.75;;;31.60;33.30;;;;;;6185211;28;20444;-81
2021/09/05 14:30:34;;;;;;;5.88;3.85;;;31.20;34.30;;;;;;6184104;28;20428;-81
2021/09/05 14:33:46;;;;;;;5.95;3.60;;;31.30;33.90;;;;;;6184608;28;20413;-81
2021/09/05 14:50:27;;;;;;;4.70;3.95;;;31.20;34.30;;;;;;6182525;28;20416;-83
2021/09/05 14:56:47;;;;;;;6.55;4.78;;;31.30;34.10;;;;;;6137549;29;20436;-81
2021/09/05 14:59:52;;;;;;;4.83;3.70;;;31.20;34.40;;;;;;6162631;28;20522;-81
2021/09/05 15:02:58;;;;;;;3.90;3.60;;;31.10;33.80;;;;;;6182603;28;21017;-82
2021/09/05 15:12:44;;;;;;;4.65;3.85;;;30.50;34.70;;;;;;6181740;28;20427;-81
2021/09/05 15:15:47;;;;;;;4.63;4.00;;;30.40;34.50;;;;;;6180874;28;20475;-80
2021/09/05 15:18:49;;;;;;;4.63;4.05;;;30.20;34.20;;;;;;6181250;28;20518;-81
2021/09/05 15:21:55;;;;;;;6.37;4.67;;;30.10;36.10;;;;;;6177415;28;20449;-82
2021/09/05 15:24:56;;;;;;;4.70;4.20;;;30.00;35.50;;;;;;6177033;28;20435;-81
2021/09/05 15:28:03;;;;;;;4.30;3.75;;;30.10;36.90;;;;;;6181193;28;20443;-81
2021/09/05 15:31:10;;;;;;;9.07;4.13;;;30.20;36.60;;;;;;6179708;28;20416;-81
2021/09/05 15:34:32;;;;;;;8.52;6.43;;;30.20;36.00;;;;;;6181491;28;20446;-80
2021/09/05 15:37:49;;;;;;;6.33;5.73;;;30.00;37.10;;;;;;6180376;28;20559;-80
2021/09/05 15:51:04;;;;;;;8.18;5.22;;;29.40;38.60;;;;;;6171661;28;20416;-82
2021/09/05 15:54:17;;;;;;;6.82;4.93;;;29.40;38.80;;;;;;6172832;28;20431;-81
2021/09/05 15:57:19;;;;;;;5.93;4.38;;;29.30;38.80;;;;;;6180659;28;20443;-82
2021/09/05 16:00:25;;;;;;;6.38;4.07;;;29.10;38.90;;;;;;6169615;28;20454;-80
2021/09/05 16:03:33;;;;;;;7.15;5.78;;;28.90;39.00;;;;;;6157552;28;20433;-83
2021/09/05 16:06:46;;;;;;;11.65;10.35;;;28.80;39.20;;;;;;6157163;28;20513;-81
2021/09/05 16:16:32;;;;;;;7.00;4.73;;;28.50;38.60;;;;;;6155903;28;20439;-81
2021/09/05 16:19:39;;;;;;;5.07;4.53;;;28.40;39.40;;;;;;6155996;28;20433;-81
2021/09/05 16:22:42;;;;;;;5.28;4.78;;;28.40;39.00;;;;;;6166601;28;20574;-80
2021/09/05 16:25:44;;;;;;;5.45;3.58;;;28.30;39.20;;;;;;6156749;28;20454;-82
2021/09/05 16:28:45;;;;;;;4.17;3.77;;;28.30;39.80;;;;;;6155568;29;20457;-82
2021/09/05 16:31:47;;;;;;;4.47;4.07;;;28.30;39.60;;;;;;6154967;28;20885;-81
2021/09/05 16:34:57;;;;;;;4.53;3.83;;;28.20;40.40;;;;;;6154487;28;20512;-81